sensor_id;sensor_type;location;lat;lon;timestamp;P1;durP1;ratioP1;P2;durP2;ratioP2
33505;SDS011;19843;51.040;13.782;2022-09-09T00:01:46;1.00;;;1.00;;
33505;SDS011;19843;51.040;13.782;2022-09-09T00:04:21;0.98;;;0.98;;
33505;SDS011;19843;51.040;13.782;2022-09-09T00:06:56;1.05;;;1.05;;
33505;SDS011;19843;51.040;13.782;2022-09-09T00:09:30;1.42;;;1.33;;
33505;SDS011;19843;51.040;13.782;2022-09-09T00:12:05;0.95;;;0.95;;
33505;SDS011;19843;51.040;13.782;2022-09-09T00:14:40;0.90;;;0.90;;
33505;SDS011;19843;51.040;13.782;2022-09-09T00:17:17;0.77;;;0.77;;
33505;SDS011;19843;51.040;13.782;2022-09-09T00:19:54;0.90;;;0.90;;
33505;SDS011;19843;51.040;13.782;2022-09-09T00:22:28;0.82;;;0.82;;
33505;SDS011;19843;51.040;13.782;2022-09-09T00:25:00;0.90;;;0.90;;
33505;SDS011;19843;51.040;13.782;2022-09-09T00:27:38;0.93;;;0.93;;
33505;SDS011;19843;51.040;13.782;2022-09-09T00:30:13;1.05;;;1.05;;
33505;SDS011;19843;51.040;13.782;2022-09-09T00:32:47;1.08;;;1.08;;
33505;SDS011;19843;51.040;13.782;2022-09-09T00:35:16;1.23;;;1.23;;
33505;SDS011;19843;51.040;13.782;2022-09-09T00:37:50;1.08;;;1.08;;
33505;SDS011;19843;51.040;13.782;2022-09-09T00:40:24;1.05;;;1.05;;
33505;SDS011;19843;51.040;13.782;2022-09-09T00:43:02;1.40;;;1.30;;
33505;SDS011;19843;51.040;13.782;2022-09-09T00:45:56;1.02;;;1.02;;
33505;SDS011;19843;51.040;13.782;2022-09-09T00:48:56;0.80;;;0.80;;
33505;SDS011;19843;51.040;13.782;2022-09-09T00:51:35;0.93;;;0.93;;
33505;SDS011;19843;51.040;13.782;2022-09-09T00:54:23;1.00;;;1.00;;
33505;SDS011;19843;51.040;13.782;2022-09-09T00:57:12;0.87;;;0.87;;
33505;SDS011;19843;51.040;13.782;2022-09-09T00:59:50;1.08;;;1.08;;
33505;SDS011;19843;51.040;13.782;2022-09-09T01:02:22;1.02;;;1.02;;
33505;SDS011;19843;51.040;13.782;2022-09-09T01:04:58;0.98;;;0.98;;
33505;SDS011;19843;51.040;13.782;2022-09-09T01:07:32;1.02;;;1.02;;
33505;SDS011;19843;51.040;13.782;2022-09-09T01:10:00;1.33;;;1.33;;
33505;SDS011;19843;51.040;13.782;2022-09-09T01:12:35;1.25;;;1.15;;
33505;SDS011;19843;51.040;13.782;2022-09-09T01:15:10;1.23;;;1.15;;
33505;SDS011;19843;51.040;13.782;2022-09-09T01:17:46;1.27;;;1.17;;
33505;SDS011;19843;51.040;13.782;2022-09-09T01:20:23;1.17;;;1.17;;
33505;SDS011;19843;51.040;13.782;2022-09-09T01:26:11;1.00;;;1.00;;
33505;SDS011;19843;51.040;13.782;2022-09-09T01:28:45;0.85;;;0.85;;
33505;SDS011;19843;51.040;13.782;2022-09-09T01:31:15;1.60;;;1.60;;
33505;SDS011;19843;51.040;13.782;2022-09-09T01:33:46;2.10;;;2.00;;
33505;SDS011;19843;51.040;13.782;2022-09-09T01:36:16;2.58;;;2.47;;
33505;SDS011;19843;51.040;13.782;2022-09-09T01:38:48;3.65;;;3.55;;
33505;SDS011;19843;51.040;13.782;2022-09-09T01:41:17;4.30;;;4.10;;
33505;SDS011;19843;51.040;13.782;2022-09-09T01:43:45;4.80;;;4.63;;
33505;SDS011;19843;51.040;13.782;2022-09-09T01:46:13;4.68;;;4.47;;
33505;SDS011;19843;51.040;13.782;2022-09-09T01:48:42;4.43;;;4.30;;
33505;SDS011;19843;51.040;13.782;2022-09-09T01:51:11;4.40;;;4.30;;
33505;SDS011;19843;51.040;13.782;2022-09-09T01:53:38;4.70;;;4.50;;
33505;SDS011;19843;51.040;13.782;2022-09-09T01:56:11;4.15;;;4.05;;
33505;SDS011;19843;51.040;13.782;2022-09-09T01:58:54;3.58;;;3.47;;
33505;SDS011;19843;51.040;13.782;2022-09-09T02:01:35;2.92;;;2.83;;
33505;SDS011;19843;51.040;13.782;2022-09-09T02:04:17;2.38;;;2.28;;
33505;SDS011;19843;51.040;13.782;2022-09-09T02:06:50;1.88;;;1.88;;
33505;SDS011;19843;51.040;13.782;2022-09-09T02:09:23;1.70;;;1.70;;
33505;SDS011;19843;51.040;13.782;2022-09-09T02:11:53;1.65;;;1.65;;
33505;SDS011;19843;51.040;13.782;2022-09-09T02:14:27;2.10;;;2.00;;
33505;SDS011;19843;51.040;13.782;2022-09-09T02:16:59;2.13;;;2.05;;
33505;SDS011;19843;51.040;13.782;2022-09-09T02:19:32;2.97;;;2.88;;
33505;SDS011;19843;51.040;13.782;2022-09-09T02:22:02;2.80;;;2.70;;
33505;SDS011;19843;51.040;13.782;2022-09-09T02:24:32;2.55;;;2.45;;
33505;SDS011;19843;51.040;13.782;2022-09-09T02:27:03;2.33;;;2.22;;
33505;SDS011;19843;51.040;13.782;2022-09-09T02:29:36;2.00;;;2.00;;
33505;SDS011;19843;51.040;13.782;2022-09-09T02:32:08;2.20;;;2.17;;
33505;SDS011;19843;51.040;13.782;2022-09-09T02:34:40;1.73;;;1.73;;
33505;SDS011;19843;51.040;13.782;2022-09-09T02:37:12;1.45;;;1.45;;
33505;SDS011;19843;51.040;13.782;2022-09-09T02:39:42;1.33;;;1.33;;
33505;SDS011;19843;51.040;13.782;2022-09-09T02:42:10;1.08;;;1.08;;
33505;SDS011;19843;51.040;13.782;2022-09-09T02:44:41;1.08;;;1.08;;
33505;SDS011;19843;51.040;13.782;2022-09-09T02:47:16;1.23;;;1.00;;
33505;SDS011;19843;51.040;13.782;2022-09-09T02:49:57;1.27;;;1.10;;
33505;SDS011;19843;51.040;13.782;2022-09-09T02:52:32;1.52;;;1.42;;
33505;SDS011;19843;51.040;13.782;2022-09-09T02:55:11;1.08;;;1.08;;
33505;SDS011;19843;51.040;13.782;2022-09-09T02:57:45;1.30;;;1.30;;
33505;SDS011;19843;51.040;13.782;2022-09-09T03:00:15;1.38;;;1.33;;
33505;SDS011;19843;51.040;13.782;2022-09-09T03:02:43;1.60;;;1.60;;
33505;SDS011;19843;51.040;13.782;2022-09-09T03:05:11;2.30;;;2.20;;
33505;SDS011;19843;51.040;13.782;2022-09-09T03:07:39;2.75;;;2.65;;
33505;SDS011;19843;51.040;13.782;2022-09-09T03:10:08;3.25;;;3.15;;
33505;SDS011;19843;51.040;13.782;2022-09-09T03:12:36;3.72;;;3.63;;
33505;SDS011;19843;51.040;13.782;2022-09-09T03:15:05;3.90;;;3.80;;
33505;SDS011;19843;51.040;13.782;2022-09-09T03:17:35;3.90;;;3.80;;
33505;SDS011;19843;51.040;13.782;2022-09-09T03:20:02;3.90;;;3.80;;
33505;SDS011;19843;51.040;13.782;2022-09-09T03:22:30;3.55;;;3.45;;
33505;SDS011;19843;51.040;13.782;2022-09-09T03:24:58;3.05;;;2.95;;
33505;SDS011;19843;51.040;13.782;2022-09-09T03:27:26;2.38;;;2.28;;
33505;SDS011;19843;51.040;13.782;2022-09-09T03:29:53;1.80;;;1.80;;
33505;SDS011;19843;51.040;13.782;2022-09-09T03:32:22;1.25;;;1.25;;
33505;SDS011;19843;51.040;13.782;2022-09-09T03:34:53;1.23;;;1.23;;
33505;SDS011;19843;51.040;13.782;2022-09-09T03:37:20;1.33;;;1.20;;
33505;SDS011;19843;51.040;13.782;2022-09-09T03:39:48;1.13;;;1.10;;
33505;SDS011;19843;51.040;13.782;2022-09-09T03:42:16;1.00;;;1.00;;
33505;SDS011;19843;51.040;13.782;2022-09-09T03:44:45;1.13;;;1.08;;
33505;SDS011;19843;51.040;13.782;2022-09-09T03:47:16;1.17;;;1.17;;
33505;SDS011;19843;51.040;13.782;2022-09-09T03:49:45;1.25;;;1.25;;
33505;SDS011;19843;51.040;13.782;2022-09-09T03:52:14;1.25;;;1.25;;
33505;SDS011;19843;51.040;13.782;2022-09-09T03:54:48;1.52;;;1.42;;
33505;SDS011;19843;51.040;13.782;2022-09-09T03:57:15;1.60;;;1.60;;
33505;SDS011;19843;51.040;13.782;2022-09-09T03:59:43;1.27;;;1.27;;
33505;SDS011;19843;51.040;13.782;2022-09-09T04:02:10;1.30;;;1.30;;
33505;SDS011;19843;51.040;13.782;2022-09-09T04:04:38;1.17;;;1.17;;
33505;SDS011;19843;51.040;13.782;2022-09-09T04:07:05;1.30;;;1.30;;
33505;SDS011;19843;51.040;13.782;2022-09-09T04:09:34;1.30;;;1.27;;
33505;SDS011;19843;51.040;13.782;2022-09-09T04:12:02;1.13;;;1.13;;
33505;SDS011;19843;51.040;13.782;2022-09-09T04:14:29;1.02;;;1.02;;
33505;SDS011;19843;51.040;13.782;2022-09-09T04:16:57;0.95;;;0.95;;
33505;SDS011;19843;51.040;13.782;2022-09-09T04:19:25;1.00;;;1.00;;
33505;SDS011;19843;51.040;13.782;2022-09-09T04:21:52;1.58;;;1.05;;
33505;SDS011;19843;51.040;13.782;2022-09-09T04:24:20;1.13;;;1.13;;
33505;SDS011;19843;51.040;13.782;2022-09-09T04:26:49;1.30;;;1.30;;
33505;SDS011;19843;51.040;13.782;2022-09-09T04:29:16;1.27;;;1.27;;
33505;SDS011;19843;51.040;13.782;2022-09-09T04:31:43;1.52;;;1.42;;
33505;SDS011;19843;51.040;13.782;2022-09-09T04:34:11;1.17;;;1.17;;
33505;SDS011;19843;51.040;13.782;2022-09-09T04:36:38;1.27;;;1.17;;
33505;SDS011;19843;51.040;13.782;2022-09-09T04:39:06;1.00;;;1.00;;
33505;SDS011;19843;51.040;13.782;2022-09-09T04:41:33;1.48;;;1.48;;
33505;SDS011;19843;51.040;13.782;2022-09-09T04:44:05;1.25;;;1.25;;
33505;SDS011;19843;51.040;13.782;2022-09-09T04:46:32;1.45;;;1.35;;
33505;SDS011;19843;51.040;13.782;2022-09-09T04:49:00;1.35;;;1.35;;
33505;SDS011;19843;51.040;13.782;2022-09-09T04:51:27;1.45;;;1.45;;
33505;SDS011;19843;51.040;13.782;2022-09-09T04:53:57;1.60;;;1.60;;
33505;SDS011;19843;51.040;13.782;2022-09-09T04:56:24;3.00;;;2.00;;
33505;SDS011;19843;51.040;13.782;2022-09-09T04:58:54;2.10;;;2.00;;
33505;SDS011;19843;51.040;13.782;2022-09-09T05:01:23;1.75;;;1.75;;
33505;SDS011;19843;51.040;13.782;2022-09-09T05:03:51;2.05;;;1.95;;
33505;SDS011;19843;51.040;13.782;2022-09-09T05:06:19;2.20;;;2.20;;
33505;SDS011;19843;51.040;13.782;2022-09-09T05:08:48;2.83;;;2.63;;
33505;SDS011;19843;51.040;13.782;2022-09-09T05:11:16;2.90;;;2.80;;
33505;SDS011;19843;51.040;13.782;2022-09-09T05:13:45;3.10;;;3.00;;
33505;SDS011;19843;51.040;13.782;2022-09-09T05:16:13;3.58;;;3.40;;
33505;SDS011;19843;51.040;13.782;2022-09-09T05:18:42;3.28;;;3.17;;
33505;SDS011;19843;51.040;13.782;2022-09-09T05:21:12;3.35;;;3.25;;
33505;SDS011;19843;51.040;13.782;2022-09-09T05:23:40;3.53;;;3.28;;
33505;SDS011;19843;51.040;13.782;2022-09-09T05:26:09;4.00;;;3.88;;
33505;SDS011;19843;51.040;13.782;2022-09-09T05:28:42;4.25;;;4.13;;
33505;SDS011;19843;51.040;13.782;2022-09-09T05:31:10;4.40;;;4.28;;
33505;SDS011;19843;51.040;13.782;2022-09-09T05:33:39;3.42;;;3.33;;
33505;SDS011;19843;51.040;13.782;2022-09-09T05:36:11;2.42;;;2.35;;
33505;SDS011;19843;51.040;13.782;2022-09-09T05:38:40;1.63;;;1.63;;
33505;SDS011;19843;51.040;13.782;2022-09-09T05:41:08;1.80;;;1.73;;
33505;SDS011;19843;51.040;13.782;2022-09-09T05:43:37;1.55;;;1.55;;
33505;SDS011;19843;51.040;13.782;2022-09-09T05:46:05;1.50;;;1.50;;
33505;SDS011;19843;51.040;13.782;2022-09-09T05:48:34;1.33;;;1.33;;
33505;SDS011;19843;51.040;13.782;2022-09-09T05:51:04;1.00;;;1.00;;
33505;SDS011;19843;51.040;13.782;2022-09-09T05:53:34;1.10;;;1.10;;
33505;SDS011;19843;51.040;13.782;2022-09-09T05:56:02;0.90;;;0.90;;
33505;SDS011;19843;51.040;13.782;2022-09-09T05:58:31;0.88;;;0.88;;
33505;SDS011;19843;51.040;13.782;2022-09-09T06:01:00;1.38;;;1.38;;
33505;SDS011;19843;51.040;13.782;2022-09-09T06:03:28;1.63;;;1.63;;
33505;SDS011;19843;51.040;13.782;2022-09-09T06:05:59;1.70;;;1.70;;
33505;SDS011;19843;51.040;13.782;2022-09-09T06:08:27;2.08;;;2.00;;
33505;SDS011;19843;51.040;13.782;2022-09-09T06:11:01;2.20;;;2.10;;
33505;SDS011;19843;51.040;13.782;2022-09-09T06:13:30;2.10;;;2.10;;
33505;SDS011;19843;51.040;13.782;2022-09-09T06:15:58;2.30;;;2.30;;
33505;SDS011;19843;51.040;13.782;2022-09-09T06:18:26;2.35;;;2.15;;
33505;SDS011;19843;51.040;13.782;2022-09-09T06:20:54;2.22;;;2.13;;
33505;SDS011;19843;51.040;13.782;2022-09-09T06:23:26;2.20;;;2.10;;
33505;SDS011;19843;51.040;13.782;2022-09-09T06:26:03;2.25;;;2.15;;
33505;SDS011;19843;51.040;13.782;2022-09-09T06:28:32;2.25;;;2.15;;
33505;SDS011;19843;51.040;13.782;2022-09-09T06:31:00;2.08;;;1.98;;
33505;SDS011;19843;51.040;13.782;2022-09-09T06:33:31;1.83;;;1.83;;
33505;SDS011;19843;51.040;13.782;2022-09-09T06:36:01;1.45;;;1.38;;
33505;SDS011;19843;51.040;13.782;2022-09-09T06:38:29;1.40;;;1.40;;
33505;SDS011;19843;51.040;13.782;2022-09-09T06:40:57;1.40;;;1.40;;
33505;SDS011;19843;51.040;13.782;2022-09-09T06:43:27;1.35;;;1.30;;
33505;SDS011;19843;51.040;13.782;2022-09-09T06:45:57;1.48;;;1.40;;
33505;SDS011;19843;51.040;13.782;2022-09-09T06:48:25;1.20;;;1.20;;
33505;SDS011;19843;51.040;13.782;2022-09-09T06:51:00;1.23;;;1.23;;
33505;SDS011;19843;51.040;13.782;2022-09-09T06:53:29;1.10;;;1.10;;
33505;SDS011;19843;51.040;13.782;2022-09-09T06:55:59;1.10;;;1.10;;
33505;SDS011;19843;51.040;13.782;2022-09-09T06:58:29;1.17;;;1.15;;
33505;SDS011;19843;51.040;13.782;2022-09-09T07:01:03;1.30;;;1.20;;
33505;SDS011;19843;51.040;13.782;2022-09-09T07:03:32;2.08;;;1.88;;
33505;SDS011;19843;51.040;13.782;2022-09-09T07:05:59;1.92;;;1.83;;
33505;SDS011;19843;51.040;13.782;2022-09-09T07:08:27;1.83;;;1.73;;
33505;SDS011;19843;51.040;13.782;2022-09-09T07:11:01;1.67;;;1.67;;
33505;SDS011;19843;51.040;13.782;2022-09-09T07:13:38;1.75;;;1.65;;
33505;SDS011;19843;51.040;13.782;2022-09-09T07:16:06;1.55;;;1.55;;
33505;SDS011;19843;51.040;13.782;2022-09-09T07:18:34;1.50;;;1.50;;
33505;SDS011;19843;51.040;13.782;2022-09-09T07:21:02;2.65;;;1.65;;
33505;SDS011;19843;51.040;13.782;2022-09-09T07:23:30;1.90;;;1.80;;
33505;SDS011;19843;51.040;13.782;2022-09-09T07:26:01;1.98;;;1.88;;
33505;SDS011;19843;51.040;13.782;2022-09-09T07:28:30;2.28;;;2.22;;
33505;SDS011;19843;51.040;13.782;2022-09-09T07:30:59;1.95;;;1.95;;
33505;SDS011;19843;51.040;13.782;2022-09-09T07:33:29;2.55;;;2.45;;
33505;SDS011;19843;51.040;13.782;2022-09-09T07:36:01;4.18;;;3.97;;
33505;SDS011;19843;51.040;13.782;2022-09-09T07:38:30;4.80;;;4.60;;
33505;SDS011;19843;51.040;13.782;2022-09-09T07:41:02;5.07;;;4.88;;
33505;SDS011;19843;51.040;13.782;2022-09-09T07:43:31;3.90;;;3.80;;
33505;SDS011;19843;51.040;13.782;2022-09-09T07:46:00;1.92;;;1.83;;
33505;SDS011;19843;51.040;13.782;2022-09-09T07:48:28;1.08;;;1.08;;
33505;SDS011;19843;51.040;13.782;2022-09-09T07:51:04;0.90;;;0.90;;
33505;SDS011;19843;51.040;13.782;2022-09-09T07:53:33;2.25;;;2.15;;
33505;SDS011;19843;51.040;13.782;2022-09-09T07:56:03;2.30;;;2.22;;
33505;SDS011;19843;51.040;13.782;2022-09-09T07:58:31;2.80;;;2.70;;
33505;SDS011;19843;51.040;13.782;2022-09-09T08:01:09;2.13;;;2.05;;
33505;SDS011;19843;51.040;13.782;2022-09-09T08:03:38;2.15;;;2.05;;
33505;SDS011;19843;51.040;13.782;2022-09-09T08:06:10;2.40;;;2.30;;
33505;SDS011;19843;51.040;13.782;2022-09-09T08:08:38;2.65;;;2.55;;
33505;SDS011;19843;51.040;13.782;2022-09-09T08:11:08;1.92;;;1.92;;
33505;SDS011;19843;51.040;13.782;2022-09-09T08:13:38;1.10;;;1.10;;
33505;SDS011;19843;51.040;13.782;2022-09-09T08:16:07;1.33;;;1.33;;
33505;SDS011;19843;51.040;13.782;2022-09-09T08:18:38;1.10;;;1.10;;
33505;SDS011;19843;51.040;13.782;2022-09-09T08:21:07;1.40;;;1.40;;
33505;SDS011;19843;51.040;13.782;2022-09-09T08:23:37;1.25;;;1.25;;
33505;SDS011;19843;51.040;13.782;2022-09-09T08:26:09;1.67;;;1.58;;
33505;SDS011;19843;51.040;13.782;2022-09-09T08:28:38;1.50;;;1.50;;
33505;SDS011;19843;51.040;13.782;2022-09-09T08:31:07;2.10;;;2.10;;
33505;SDS011;19843;51.040;13.782;2022-09-09T08:33:40;2.80;;;2.70;;
33505;SDS011;19843;51.040;13.782;2022-09-09T08:36:10;3.55;;;3.45;;
33505;SDS011;19843;51.040;13.782;2022-09-09T08:38:39;3.00;;;2.90;;
33505;SDS011;19843;51.040;13.782;2022-09-09T08:41:14;1.88;;;1.73;;
33505;SDS011;19843;51.040;13.782;2022-09-09T08:43:58;1.50;;;1.50;;
33505;SDS011;19843;51.040;13.782;2022-09-09T08:46:34;1.60;;;1.50;;
33505;SDS011;19843;51.040;13.782;2022-09-09T08:49:15;1.30;;;1.20;;
33505;SDS011;19843;51.040;13.782;2022-09-09T08:51:49;1.30;;;1.30;;
33505;SDS011;19843;51.040;13.782;2022-09-09T08:54:17;1.20;;;1.20;;
33505;SDS011;19843;51.040;13.782;2022-09-09T08:57:05;1.98;;;1.88;;
33505;SDS011;19843;51.040;13.782;2022-09-09T08:59:41;2.20;;;2.10;;
33505;SDS011;19843;51.040;13.782;2022-09-09T09:02:13;4.30;;;2.25;;
33505;SDS011;19843;51.040;13.782;2022-09-09T09:04:53;2.72;;;2.63;;
33505;SDS011;19843;51.040;13.782;2022-09-09T09:07:32;2.67;;;2.58;;
33505;SDS011;19843;51.040;13.782;2022-09-09T09:10:16;2.60;;;2.40;;
33505;SDS011;19843;51.040;13.782;2022-09-09T09:13:07;2.03;;;2.00;;
33505;SDS011;19843;51.040;13.782;2022-09-09T09:15:41;2.40;;;2.22;;
33505;SDS011;19843;51.040;13.782;2022-09-09T09:18:12;2.17;;;2.08;;
33505;SDS011;19843;51.040;13.782;2022-09-09T09:20:43;3.72;;;2.28;;
33505;SDS011;19843;51.040;13.782;2022-09-09T09:23:20;2.55;;;2.45;;
33505;SDS011;19843;51.040;13.782;2022-09-09T09:25:50;2.60;;;2.50;;
33505;SDS011;19843;51.040;13.782;2022-09-09T09:28:24;2.45;;;2.35;;
33505;SDS011;19843;51.040;13.782;2022-09-09T09:30:54;1.05;;;1.05;;
33505;SDS011;19843;51.040;13.782;2022-09-09T09:33:26;1.70;;;1.70;;
33505;SDS011;19843;51.040;13.782;2022-09-09T09:35:58;3.85;;;3.72;;
33505;SDS011;19843;51.040;13.782;2022-09-09T09:38:27;5.90;;;5.70;;
33505;SDS011;19843;51.040;13.782;2022-09-09T09:41:15;2.97;;;2.88;;
33505;SDS011;19843;51.040;13.782;2022-09-09T09:43:52;1.77;;;1.67;;
33505;SDS011;19843;51.040;13.782;2022-09-09T09:46:21;1.75;;;1.75;;
33505;SDS011;19843;51.040;13.782;2022-09-09T09:48:59;4.32;;;4.20;;
33505;SDS011;19843;51.040;13.782;2022-09-09T09:51:29;4.70;;;4.50;;
33505;SDS011;19843;51.040;13.782;2022-09-09T09:56:52;4.72;;;4.53;;
33505;SDS011;19843;51.040;13.782;2022-09-09T09:59:20;4.80;;;4.63;;
33505;SDS011;19843;51.040;13.782;2022-09-09T10:05:01;3.78;;;3.67;;
33505;SDS011;19843;51.040;13.782;2022-09-09T10:07:30;4.30;;;4.05;;
33505;SDS011;19843;51.040;13.782;2022-09-09T10:09:59;4.20;;;3.90;;
33505;SDS011;19843;51.040;13.782;2022-09-09T10:12:30;2.90;;;2.80;;
33505;SDS011;19843;51.040;13.782;2022-09-09T10:15:16;3.05;;;2.95;;
33505;SDS011;19843;51.040;13.782;2022-09-09T10:17:54;2.35;;;2.25;;
33505;SDS011;19843;51.040;13.782;2022-09-09T10:20:32;1.70;;;1.70;;
33505;SDS011;19843;51.040;13.782;2022-09-09T10:23:10;7.50;;;7.25;;
33505;SDS011;19843;51.040;13.782;2022-09-09T10:25:56;8.20;;;7.90;;
33505;SDS011;19843;51.040;13.782;2022-09-09T10:28:35;7.63;;;7.38;;
33505;SDS011;19843;51.040;13.782;2022-09-09T10:31:22;9.50;;;9.15;;
33505;SDS011;19843;51.040;13.782;2022-09-09T10:33:59;4.93;;;4.72;;
33505;SDS011;19843;51.040;13.782;2022-09-09T10:36:39;2.78;;;2.67;;
33505;SDS011;19843;51.040;13.782;2022-09-09T10:39:16;2.00;;;1.90;;
33505;SDS011;19843;51.040;13.782;2022-09-09T10:42:01;1.40;;;1.40;;
33505;SDS011;19843;51.040;13.782;2022-09-09T10:44:36;0.90;;;0.90;;
33505;SDS011;19843;51.040;13.782;2022-09-09T10:47:26;1.15;;;0.90;;
33505;SDS011;19843;51.040;13.782;2022-09-09T10:50:10;1.88;;;1.77;;
33505;SDS011;19843;51.040;13.782;2022-09-09T10:52:48;3.25;;;3.15;;
33505;SDS011;19843;51.040;13.782;2022-09-09T10:55:28;2.30;;;2.20;;
33505;SDS011;19843;51.040;13.782;2022-09-09T10:58:04;1.70;;;1.65;;
33505;SDS011;19843;51.040;13.782;2022-09-09T11:00:37;2.72;;;2.63;;
33505;SDS011;19843;51.040;13.782;2022-09-09T11:03:09;3.88;;;3.78;;
33505;SDS011;19843;51.040;13.782;2022-09-09T11:05:47;5.95;;;5.75;;
33505;SDS011;19843;51.040;13.782;2022-09-09T11:08:20;3.90;;;3.80;;
33505;SDS011;19843;51.040;13.782;2022-09-09T11:10:51;6.35;;;6.15;;
33505;SDS011;19843;51.040;13.782;2022-09-09T11:13:31;7.30;;;7.10;;
33505;SDS011;19843;51.040;13.782;2022-09-09T11:16:12;7.28;;;7.00;;
33505;SDS011;19843;51.040;13.782;2022-09-09T11:18:49;8.23;;;7.93;;
33505;SDS011;19843;51.040;13.782;2022-09-09T11:21:18;5.78;;;5.57;;
33505;SDS011;19843;51.040;13.782;2022-09-09T11:23:52;5.43;;;5.23;;
33505;SDS011;19843;51.040;13.782;2022-09-09T11:26:27;7.75;;;7.45;;
33505;SDS011;19843;51.040;13.782;2022-09-09T11:29:04;9.50;;;9.00;;
33505;SDS011;19843;51.040;13.782;2022-09-09T11:31:44;6.60;;;6.40;;
33505;SDS011;19843;51.040;13.782;2022-09-09T11:34:17;2.28;;;2.17;;
33505;SDS011;19843;51.040;13.782;2022-09-09T11:36:56;1.88;;;1.77;;
33505;SDS011;19843;51.040;13.782;2022-09-09T11:39:38;1.83;;;1.83;;
33505;SDS011;19843;51.040;13.782;2022-09-09T11:42:19;2.10;;;2.00;;
33505;SDS011;19843;51.040;13.782;2022-09-09T11:44:49;2.05;;;2.05;;
33505;SDS011;19843;51.040;13.782;2022-09-09T11:47:22;1.75;;;1.75;;
33505;SDS011;19843;51.040;13.782;2022-09-09T11:49:55;2.13;;;2.03;;
33505;SDS011;19843;51.040;13.782;2022-09-09T11:52:39;2.17;;;2.08;;
33505;SDS011;19843;51.040;13.782;2022-09-09T11:55:11;1.73;;;1.73;;
33505;SDS011;19843;51.040;13.782;2022-09-09T11:57:56;1.50;;;1.50;;
33505;SDS011;19843;51.040;13.782;2022-09-09T12:00:31;1.90;;;1.80;;
33505;SDS011;19843;51.040;13.782;2022-09-09T12:03:01;1.90;;;1.70;;
33505;SDS011;19843;51.040;13.782;2022-09-09T12:05:35;1.98;;;1.88;;
33505;SDS011;19843;51.040;13.782;2022-09-09T12:08:06;2.03;;;1.92;;
33505;SDS011;19843;51.040;13.782;2022-09-09T12:10:39;1.90;;;1.85;;
33505;SDS011;19843;51.040;13.782;2022-09-09T12:13:07;3.15;;;3.05;;
33505;SDS011;19843;51.040;13.782;2022-09-09T12:15:46;6.53;;;6.32;;
33505;SDS011;19843;51.040;13.782;2022-09-09T12:18:16;6.43;;;6.18;;
33505;SDS011;19843;51.040;13.782;2022-09-09T12:20:52;2.67;;;2.58;;
33505;SDS011;19843;51.040;13.782;2022-09-09T12:23:30;2.20;;;2.10;;
33505;SDS011;19843;51.040;13.782;2022-09-09T12:26:16;1.90;;;1.80;;
33505;SDS011;19843;51.040;13.782;2022-09-09T12:29:00;2.03;;;2.03;;
33505;SDS011;19843;51.040;13.782;2022-09-09T12:31:34;4.15;;;4.05;;
33505;SDS011;19843;51.040;13.782;2022-09-09T12:34:11;2.17;;;2.17;;
33505;SDS011;19843;51.040;13.782;2022-09-09T12:36:44;5.43;;;5.13;;
33505;SDS011;19843;51.040;13.782;2022-09-09T12:39:28;3.50;;;3.40;;
33505;SDS011;19843;51.040;13.782;2022-09-09T12:42:01;2.33;;;2.30;;
33505;SDS011;19843;51.040;13.782;2022-09-09T12:44:30;3.95;;;3.85;;
33505;SDS011;19843;51.040;13.782;2022-09-09T12:46:59;5.65;;;5.45;;
33505;SDS011;19843;51.040;13.782;2022-09-09T12:49:30;6.38;;;6.18;;
33505;SDS011;19843;51.040;13.782;2022-09-09T12:52:01;7.85;;;7.55;;
33505;SDS011;19843;51.040;13.782;2022-09-09T12:54:34;5.70;;;5.50;;
33505;SDS011;19843;51.040;13.782;2022-09-09T12:57:04;6.95;;;6.55;;
33505;SDS011;19843;51.040;13.782;2022-09-09T12:59:36;7.40;;;7.13;;
33505;SDS011;19843;51.040;13.782;2022-09-09T13:02:11;13.18;;;12.68;;
33505;SDS011;19843;51.040;13.782;2022-09-09T13:04:44;13.38;;;12.88;;
33505;SDS011;19843;51.040;13.782;2022-09-09T13:07:13;13.60;;;13.10;;
33505;SDS011;19843;51.040;13.782;2022-09-09T13:09:42;13.43;;;12.93;;
33505;SDS011;19843;51.040;13.782;2022-09-09T13:12:13;7.13;;;6.93;;
33505;SDS011;19843;51.040;13.782;2022-09-09T13:14:43;9.40;;;9.10;;
33505;SDS011;19843;51.040;13.782;2022-09-09T13:17:19;7.85;;;7.57;;
33505;SDS011;19843;51.040;13.782;2022-09-09T13:19:49;7.65;;;7.35;;
33505;SDS011;19843;51.040;13.782;2022-09-09T13:22:20;9.68;;;9.32;;
33505;SDS011;19843;51.040;13.782;2022-09-09T13:25:03;11.73;;;11.32;;
33505;SDS011;19843;51.040;13.782;2022-09-09T13:27:34;12.80;;;12.35;;
33505;SDS011;19843;51.040;13.782;2022-09-09T13:30:18;8.35;;;8.05;;
33505;SDS011;19843;51.040;13.782;2022-09-09T13:32:59;4.93;;;4.82;;
33505;SDS011;19843;51.040;13.782;2022-09-09T13:35:46;2.25;;;2.15;;
33505;SDS011;19843;51.040;13.782;2022-09-09T13:38:18;2.60;;;2.50;;
33505;SDS011;19843;51.040;13.782;2022-09-09T13:40:53;3.38;;;3.28;;
33505;SDS011;19843;51.040;13.782;2022-09-09T13:43:25;3.10;;;3.00;;
33505;SDS011;19843;51.040;13.782;2022-09-09T13:45:54;3.30;;;3.20;;
33505;SDS011;19843;51.040;13.782;2022-09-09T13:48:24;3.53;;;3.42;;
33505;SDS011;19843;51.040;13.782;2022-09-09T13:50:56;2.53;;;2.42;;
33505;SDS011;19843;51.040;13.782;2022-09-09T13:53:25;2.85;;;2.75;;
33505;SDS011;19843;51.040;13.782;2022-09-09T13:55:53;1.83;;;1.83;;
33505;SDS011;19843;51.040;13.782;2022-09-09T13:58:23;3.42;;;3.33;;
33505;SDS011;19843;51.040;13.782;2022-09-09T14:00:55;2.72;;;2.63;;
33505;SDS011;19843;51.040;13.782;2022-09-09T14:03:23;2.30;;;2.20;;
33505;SDS011;19843;51.040;13.782;2022-09-09T14:05:51;2.80;;;2.70;;
33505;SDS011;19843;51.040;13.782;2022-09-09T14:08:21;4.40;;;4.25;;
33505;SDS011;19843;51.040;13.782;2022-09-09T14:10:51;4.35;;;4.25;;
33505;SDS011;19843;51.040;13.782;2022-09-09T14:13:21;4.35;;;4.25;;
33505;SDS011;19843;51.040;13.782;2022-09-09T14:15:50;5.65;;;5.45;;
33505;SDS011;19843;51.040;13.782;2022-09-09T14:18:18;5.18;;;4.97;;
33505;SDS011;19843;51.040;13.782;2022-09-09T14:20:48;7.45;;;7.25;;
33505;SDS011;19843;51.040;13.782;2022-09-09T14:23:16;6.80;;;6.60;;
33505;SDS011;19843;51.040;13.782;2022-09-09T14:25:44;3.25;;;3.15;;
33505;SDS011;19843;51.040;13.782;2022-09-09T14:28:13;3.58;;;3.47;;
33505;SDS011;19843;51.040;13.782;2022-09-09T14:30:41;5.07;;;4.88;;
33505;SDS011;19843;51.040;13.782;2022-09-09T14:33:12;9.50;;;9.18;;
33505;SDS011;19843;51.040;13.782;2022-09-09T14:35:42;5.32;;;5.13;;
33505;SDS011;19843;51.040;13.782;2022-09-09T14:38:10;4.47;;;4.28;;
33505;SDS011;19843;51.040;13.782;2022-09-09T14:40:44;8.20;;;7.90;;
33505;SDS011;19843;51.040;13.782;2022-09-09T14:43:12;10.55;;;10.15;;
33505;SDS011;19843;51.040;13.782;2022-09-09T14:45:40;8.05;;;7.75;;
33505;SDS011;19843;51.040;13.782;2022-09-09T14:48:07;7.95;;;7.65;;
33505;SDS011;19843;51.040;13.782;2022-09-09T14:50:38;4.20;;;4.10;;
33505;SDS011;19843;51.040;13.782;2022-09-09T14:53:06;4.22;;;4.13;;
33505;SDS011;19843;51.040;13.782;2022-09-09T14:55:39;5.22;;;5.05;;
33505;SDS011;19843;51.040;13.782;2022-09-09T14:58:06;7.70;;;7.43;;
33505;SDS011;19843;51.040;13.782;2022-09-09T15:00:33;7.20;;;6.97;;
33505;SDS011;19843;51.040;13.782;2022-09-09T15:03:01;9.98;;;9.65;;
33505;SDS011;19843;51.040;13.782;2022-09-09T15:05:29;11.05;;;10.65;;
33505;SDS011;19843;51.040;13.782;2022-09-09T15:07:59;10.27;;;9.90;;
33505;SDS011;19843;51.040;13.782;2022-09-09T15:10:26;5.65;;;5.45;;
33505;SDS011;19843;51.040;13.782;2022-09-09T15:12:54;4.57;;;4.47;;